AirNav   Everest Fuels
 
 593 users online  

I19 Greene County-Lewis A Jackson Regional Airport
Dayton, Ohio, USA

GOING TO DAYTON?


FAA INFORMATION EFFECTIVE 22 APRIL 2021

Location

FAA Identifier: I19
Lat/Long: 39-41-26.6000N 083-59-34.0000W
39-41.443333N 083-59.566667W
39.6907222,-83.9927778
(estimated)
Elevation: 948.5 ft. / 289.1 m (surveyed)
Variation: 05W (1995)
From city: 10 miles E of DAYTON, OH
Time zone: UTC -4 (UTC -5 during Standard Time)
Zip code: 45385

Airport Operations

Airport use: Open to the public
Activation date: 10/1968
Control tower: no
ARTCC: INDIANAPOLIS CENTER
FSS: DAYTON FLIGHT SERVICE STATION
NOTAMs facility: DAY (NOTAM-D service available)
Attendance: NOV-MAR 0800-1800, APR-OCT 0800-2000
UNATNDD THANKSGIVING, CHRISTMAS, & NEW YEARS DAY.
Wind indicator: lighted
Segmented circle: no
Lights: ACTVT REIL RWY 07 & 25; LIRL RWY 07/25 - CTAF. PAPI RWY 07 & 25 OPR CONSLY.
Beacon: white-green (lighted land airport)
Operates sunset to sunrise.

Airport Communications

CTAF/UNICOM: 122.7
WX AWOS-3: 118.525 (937-372-4668)
COLUMBUS APPROACH: 118.85
COLUMBUS DEPARTURE: 118.85
CLASS C: 118.85
IC: 118.85
WX AWOS-3PT at SGH (11 nm NE): 134.975 (937-324-4532)
WX ASOS at MGY (12 nm SW): 118.375 (937-885-2171)
WX AWOS-3 at I66 (13 nm SE): 124.175 (937-382-1376)
WX ASOS at DAY (16 nm NW): PHONE 937-415-6819
WX AWOS-3 at I68 (18 nm SW): 120.55 (513-934-5500)
WX ASOS at ILN (18 nm SE): PHONE 937-383-7334

Nearby radio navigation aids

VOR radial/distance  VOR name  Freq  Var
MXQr335/18.0MIDWEST VOR/DME112.9004W
DQNr137/27.0DAYTON VOR/DME114.5001W
RODr181/35.9ROSEWOOD VORTAC117.5005W

 
NDB name  Hdg/Dist  Freq  Var  ID
CLARK COUNTY226/14.734104WCCJ -.-. -.-. .---
HOOK FIELD065/24.023904WHKF .... -.- ..-.
COURT HOUSE287/28.341406WCSS -.-. ... ...
SPORTYS020/38.324504WPWF .--. .-- ..-.

Airport Services

Fuel available: 100LL JET-A+
FUEL AVBL H24 WITH CREDIT CARD CTC FBO AT 937-347-1302.
Parking: hangars and tiedowns
Airframe service: MAJOR
Powerplant service: MAJOR
Bulk oxygen: HIGH

Runway Information

Runway 7/25

Dimensions: 5004 x 75 ft. / 1525 x 23 m
Surface: asphalt, in excellent condition
Weight bearing capacity: 
Single wheel: 30.0
Runway edge lights: low intensity
RUNWAY 7  RUNWAY 25
Latitude: 39-41.256342N39-41.629478N
Longitude: 084-00.042808W083-59.091673W
Elevation: 909.5 ft.948.5 ft.
Traffic pattern: leftleft
Runway heading: 068 magnetic, 063 true248 magnetic, 243 true
Markings: nonprecision, in good conditionnonprecision, in good condition
Visual slope indicator: 2-light PAPI on left (3.50 degrees glide path)2-light PAPI on left (3.50 degrees glide path)
Runway end identifier lights: yesyes
Touchdown point: yes, no lightsyes, no lights
Obstructions: 16 ft. trees, 565 ft. from runway, 100 ft. right of centerline, 22:1 slope to clearnone
+10 FT TREES & BRUSH, 0-199 FT DIST, 195-250 FT R.

Airport Ownership and Management from official FAA records

Ownership: Publicly-owned
Owner: GREENE COUNTY RGNL ARPT AUTH
140 N VALLEY RD
XENIA, OH 45385-9301
Phone 937-376-8107
Manager: DAVE KUSHNER
140 N VALLEY RD
XENIA, OH 45385-9301
Phone 937-376-8107

Airport Operational Statistics

Aircraft based on the field: 76
Single engine airplanes: 66
Multi engine airplanes: 9
Helicopters: 1
    
Aircraft operations: avg 117/day *
91% local general aviation
9% transient general aviation
* for 12-month period ending 22 September 2018

Additional Remarks

BIRDS & DEER ON & INVOF ARPT.
FOR CD CTC COLUMBUS APCH AT 614-338-8537.
EXTSV FLT TRG ACT.

Instrument Procedures

NOTE: All procedures below are presented as PDF files. If you need a reader for these files, you should download the free Adobe Reader.

NOT FOR NAVIGATION. Please procure official charts for flight.
FAA instrument procedures published for use from 22 April 2021 at 0901Z to 20 May 2021 at 0900z.

 
IAPs - Instrument Approach Procedures
RNAV (GPS) RWY 07   download (273KB)
RNAV (GPS) RWY 25   download (277KB)
NOTE: Special Take-Off Minimums/Departure Procedures apply   download (232KB)

Other nearby airports with instrument procedures:

KFFO - Wright-Patterson Air Force Base (8 nm N)
KSGH - Springfield-Beckley Municipal Airport (11 nm NE)
KMGY - Dayton-Wright Brothers Airport (12 nm SW)
I66 - Clinton Field Airport (13 nm SE)
KDAY - James M Cox Dayton International Airport (16 nm NW)
I68 - Warren County Airport/John Lane Field (18 nm SW)
KILN - Wilmington Air Park (18 nm SE)
 
Loc | Ops | Rwys | IFR | FBO | Links
Com | Nav | Svcs | Stats | Notes
Area around I19 (Greene County-Lewis A Jackson Regional Airport)
 
Road maps at: MapQuest Bing Google
 
Aerial photo
WARNING: Photo may not be current or correct
Aerial photo of I19 (Greene County-Lewis A Jackson Regional Airport)
Photo by Anthony Springer
Photo taken 13-Jun-2018
looking northeast.

Do you have a better or more recent aerial photo of Greene County-Lewis A Jackson Regional Airport that you would like to share? If so, please send us your photo.

 
Sectional chart

 
Airport distance calculator
Flying to Greene County-Lewis A Jackson Regional Airport? Find the distance to fly.

From to I19

Sunrise and sunset
Times for 08-May-2021
 Local
(UTC-4)
 Zulu
(UTC)
Morning civil twilight06:0010:00
Sunrise06:2910:29
Sunset20:3600:36
Evening civil twilight21:0501:05

Current date and time
Zulu (UTC)  08-May-2021 05:20:57
Local (UTC-4)  08-May-2021 01:20:57
 
METAR
KFFO 
8nm N 
080456Z AUTO 31006KT 10SM CLR 06/00 A2998 RMK AO2 SLP157 T00610004 401600049
KSGH 
11nm NE 
080456Z AUTO 31009KT 10SM CLR 05/02 A2997 RMK AO2 SLP155 P0002 T00500022
KMGY 
12nm SW 
080453Z AUTO 32007KT 10SM CLR 07/01 A2998 RMK AO2 SLP154 T00720011 401560050
KDAY 
16nm NW 
080456Z 32010KT 10SM CLR 06/M01 A2999 RMK AO2 SLP158 T00611006 401670050 $
KILN 
18nm SE 
080454Z AUTO 32011KT 10SM FEW060 07/02 A2997 RMK AO2 SLP159 T00720017 401560056
KI68 
18nm SW 
080455Z AUTO 32006KT 10SM CLR 07/05 A3000 RMK AO1 T00670047
TAF
KFFO 
8nm N 
080301Z 0803/0909 30009KT 9999 SCT060 QNH2997INS BECMG 0813/0814 33012KT 9999 SKC QNH3008INS BECMG 0821/0822 29006KT 9999 FEW140 BKN250 QNH3005INS BECMG 0905/0906 VRB06KT 9999 VCSH SCT015 BKN025 OVC120 520554 QNH3000INS BECMG 0908/0909 11012KT 9000 -RA BKN015 BKN025 OVC100 520423 QNH2994INS TX14/0820Z TN01/0811Z
KDAY 
16nm NW 
080022Z 0800/0824 28007G17KT P6SM -SHRA VCTS BKN060CB TEMPO 0800/0801 4SM TSRA FM080100 32008G16KT P6SM VCSH BKN060 FM080400 32008G13KT P6SM FEW250 FM081500 34009KT P6SM FEW250 FM082000 29005KT P6SM FEW250 FM082300 26003KT P6SM SCT250
KILN 
18nm SE 
080053Z 0801/0824 29008G13KT 6SM -SHRA OVC060 FM080200 30007G15KT P6SM VCSH OVC060 FM080400 31008KT P6SM SCT100 FM081800 30007KT P6SM FEW250 FM082200 28004KT P6SM SCT250
NOTAMs
Click for the latest NOTAMs
NOTAMs are issued by the DoD/FAA and will open in a separate window not controlled by AirNav.

 

 
 

FBO, Fuel Providers, and Aircraft Ground Support

  
 Business Name 
 
 Contact 
 
 Services / Description 
 
Fuel Prices
 
Comments
  
 MacAir Aviation
937-347-1302
[web site]
[email]
Aviation fuel, Aircraft ground handling, Aircraft parking (ramp or tiedown), Hangars, Passenger terminal and lounge, Pilot school (FAR Part 141), ...
 
Certificated Pilot School   PSI FAA Test Center  
 
More info about MacAir Aviation
EPIC
100LL Jet A
AS $4.81 $2.88 
 Updated 07-May-2021
 
   4 read write
AS=Assisted/Self Service
Update Fuel Prices
 

Would you like to see your business listed on this page?

 If your business provides an interesting product or service to pilots, flight crews, aircraft, or users of the Greene County-Lewis A Jackson Regional Airport, you should consider listing it here.  To start the listing process, click on the button below
 
Add a business
 

Other Pages about Greene County-Lewis A Jackson Regional Airport

www.i19airport.com
 
Update a link
 
Copyright © AirNav, LLC. All rights reserved. Privacy Policy  Contact